Southeastern, PA

2:34 AM EDT on July 08, 2015 (GMT -0400)
Hunt Country | | Change Station
CLOSE
Current Station
Personal Weather Station
Location: West Chester, PA
Elevation: 427 ft
Nearby Weather Stations

Elev 427 ft 39.99 °N, 75.53 °W | Updated 11 minutes ago

Clear
Clear
73.6 °F
Feels Like 72 °F
N
1.7
Wind Variable Wind from South

Today
High -- | Low -- °F
--% Chance of Precip.
Yesterday
High -- | Low -- °F
Precip. -- in
5:40 AM 8:33 PM
Waning Gibbous, 57% visible
Pressure 29.97 in
Visibility 8.0 miles
Clouds Few 25000 ft
Heat Index 72 °F
Dew Point 70 °F
Humidity 90%
Rainfall 0.00 in
Snow Depth Not available.
UV 0 out of 12
Pollen 1.50 out of 12
Air Quality Not available.
Flu Activity Not available.
METAR KPHL 080554Z 20006KT 8SM FEW250 26/21 A2997 RMK AO2 SLP147 T02560206 10300 20256 58009

More Conditions Fewer Conditions

Pressure 29.97 in
Visibility 8.0 miles
Clouds Few 25000 ft
Heat Index 72 °F
Dew Point 70 °F
Humidity 90%
Rainfall 0.00 in
Snow Depth Not available.
UV 0 out of 12
Pollen 1.50 out of 12
Air Quality Not available.
Flu Activity Not available.
METAR KPHL 080554Z 20006KT 8SM FEW250 26/21 A2997 RMK AO2 SLP147 T02560206 10300 20256 58009

More Conditions Fewer Conditions

10-Day Weather Forecast

×

Almanac

Astronomy

Jul. 08, 2015 Rise Set
Actual Time
Civil Twilight
Nautical Twilight
Astronomical Twilight
Moon
Length of Visible Light
Length of Day
Tomorrow will be .
, % of the Moon is Illuminated

Today's Extremes

State Highs State Lows

Community

WunderPhotos

Upload Photos

1,836,064 photos uploaded!

WunderBlogs® & News

Nearby

Air Quality

  Air Quality AQ Index Pollutant
Not available.

Snow Depth

Station Depth Elevation

Earthquake Activity

City Distance Mag. Time & Date
Minimum magnitude displayed is 2.5.

Coastal Water Temperatures

Place Temperature

Stations

Nearby Weather Stations

Station Location Temp. Windchill Dew Point Humidity Wind Precip. Elev Updated Type